Time;durP1;ratioP1;P1;durP2;ratioP2;P2;SDS_P1;SDS_P2;PMS_P1;PMS_P2;Temp;Humidity;BMP_temperature;BMP_pressure;BME280_temperature;BME280_humidity;BME280_pressure;Samples;Min_cycle;Max_cycle;Signal;HPM_P1;HPM_P2
2021/04/07 00:01:49;;;;;;;7.87;3.60;;;3.50;99.90;;;;;;5042820;28;20654;-82
2021/04/07 00:04:15;;;;;;;6.93;3.53;;;3.50;99.90;;;;;;5043325;28;20161;-81
2021/04/07 00:06:41;;;;;;;6.20;3.13;;;3.50;99.90;;;;;;5058846;28;20567;-81
2021/04/07 00:09:08;;;;;;;4.93;3.53;;;3.50;99.90;;;;;;5043477;28;20991;-81
2021/04/07 00:11:34;;;;;;;5.97;4.10;;;3.40;99.90;;;;;;5043316;28;20193;-81
2021/04/07 00:14:03;;;;;;;5.22;3.80;;;3.40;99.90;;;;;;5043434;28;20181;-81
2021/04/07 00:16:29;;;;;;;5.25;3.53;;;3.40;99.90;;;;;;5041648;28;20216;-81
2021/04/07 00:18:55;;;;;;;6.53;4.60;;;3.40;99.90;;;;;;5037374;28;20252;-81
2021/04/07 00:21:20;;;;;;;5.27;4.00;;;3.40;99.90;;;;;;5054034;28;20204;-81
2021/04/07 00:23:47;;;;;;;6.17;4.37;;;3.40;99.90;;;;;;5041569;28;20571;-81
2021/04/07 00:26:12;;;;;;;6.45;2.90;;;3.40;99.90;;;;;;5029575;28;20173;-80
2021/04/07 00:28:38;;;;;;;6.80;4.20;;;3.40;99.90;;;;;;5069390;28;20187;-82
2021/04/07 00:31:04;;;;;;;5.33;3.20;;;3.30;99.90;;;;;;5051753;28;20216;-82
2021/04/07 00:33:29;;;;;;;5.20;3.60;;;3.30;99.90;;;;;;5068562;28;20243;-82
2021/04/07 00:35:56;;;;;;;6.13;4.30;;;3.30;99.90;;;;;;5067713;28;20234;-82
2021/04/07 00:38:22;;;;;;;4.22;3.50;;;3.20;99.90;;;;;;5067611;28;20250;-82
2021/04/07 00:40:48;;;;;;;4.00;3.13;;;3.20;99.90;;;;;;5064650;28;20197;-82
2021/04/07 00:43:14;;;;;;;4.75;4.30;;;3.20;99.90;;;;;;5038713;28;20579;-82
2021/04/07 00:45:42;;;;;;;4.53;3.83;;;3.20;99.90;;;;;;5060744;28;20166;-81
2021/04/07 00:48:08;;;;;;;4.90;3.88;;;3.20;99.90;;;;;;5038359;28;20177;-82
2021/04/07 00:50:35;;;;;;;5.93;4.00;;;3.20;99.90;;;;;;5019723;28;20204;-80
2021/04/07 00:53:01;;;;;;;6.25;2.85;;;3.10;99.90;;;;;;5036617;28;20173;-81
2021/04/07 00:55:32;;;;;;;3.10;2.55;;;3.20;99.90;;;;;;5054594;28;20203;-80
2021/04/07 00:57:58;;;;;;;3.47;3.00;;;3.10;99.90;;;;;;5035755;28;20205;-81
2021/04/07 01:00:26;;;;;;;4.15;3.00;;;3.10;99.90;;;;;;5053270;28;20169;-81
2021/04/07 01:02:54;;;;;;;4.35;2.70;;;3.10;99.90;;;;;;5036290;28;20536;-81
2021/04/07 01:05:20;;;;;;;3.40;2.90;;;3.10;99.90;;;;;;5053913;28;20172;-82
2021/04/07 01:07:46;;;;;;;4.10;2.65;;;3.00;99.90;;;;;;5018769;28;20180;-82
2021/04/07 01:10:13;;;;;;;4.90;2.73;;;3.00;99.90;;;;;;5039956;28;20176;-82
2021/04/07 01:12:40;;;;;;;4.78;3.05;;;3.00;99.90;;;;;;5034798;28;20622;-81
2021/04/07 01:15:07;;;;;;;5.10;3.35;;;3.00;99.90;;;;;;5035188;28;20215;-82
2021/04/07 01:17:33;;;;;;;6.75;3.88;;;2.90;99.90;;;;;;5052553;28;20660;-82
2021/04/07 01:20:03;;;;;;;6.47;3.50;;;2.90;99.90;;;;;;5035155;28;20712;-82
2021/04/07 01:22:32;;;;;;;5.25;3.03;;;2.90;99.90;;;;;;5051397;28;20304;-82
2021/04/07 01:24:58;;;;;;;5.95;3.45;;;2.90;99.90;;;;;;5018233;28;20176;-82
2021/04/07 01:27:23;;;;;;;4.85;3.72;;;2.90;99.90;;;;;;5052189;28;20160;-81
2021/04/07 01:29:49;;;;;;;4.10;3.40;;;2.90;99.90;;;;;;5034572;28;20176;-82
2021/04/07 01:32:15;;;;;;;5.63;3.50;;;2.90;99.90;;;;;;5052441;28;20606;-81
2021/04/07 01:34:43;;;;;;;4.10;2.83;;;2.90;99.90;;;;;;5018374;28;20272;-81
2021/04/07 01:37:13;;;;;;;4.68;3.10;;;2.90;99.90;;;;;;5033919;28;20315;-81
2021/04/07 01:39:40;;;;;;;3.72;3.20;;;2.90;99.90;;;;;;5052445;28;20165;-80
2021/04/07 01:42:06;;;;;;;4.72;3.45;;;2.90;99.90;;;;;;5050912;28;20199;-81
2021/04/07 01:44:35;;;;;;;6.78;4.53;;;3.00;99.90;;;;;;5052336;28;20529;-81
2021/04/07 01:47:01;;;;;;;5.63;2.95;;;3.00;99.90;;;;;;5037140;28;20188;-81
2021/04/07 01:49:27;;;;;;;3.40;2.53;;;3.00;99.90;;;;;;5053241;28;20165;-81
2021/04/07 01:51:53;;;;;;;2.38;1.85;;;3.00;99.90;;;;;;5035290;28;20203;-83
2021/04/07 01:54:19;;;;;;;7.30;3.08;;;3.00;99.90;;;;;;5018312;28;20180;-81
2021/04/07 01:56:55;;;;;;;3.72;2.63;;;3.00;99.90;;;;;;5055239;28;20248;-81
2021/04/07 01:59:23;;;;;;;7.07;3.00;;;3.00;99.90;;;;;;5056487;28;20176;-83
2021/04/07 02:01:49;;;;;;;3.50;2.55;;;3.10;99.90;;;;;;5054476;28;20287;-81
2021/04/07 02:04:15;;;;;;;5.20;2.72;;;3.10;99.90;;;;;;5036568;28;20173;-82
2021/04/07 02:06:46;;;;;;;3.60;2.72;;;3.10;99.90;;;;;;5036729;28;20188;-82
2021/04/07 02:09:13;;;;;;;6.00;3.30;;;3.20;99.90;;;;;;5052821;28;20184;-82
2021/04/07 02:11:42;;;;;;;3.38;3.03;;;3.20;99.90;;;;;;5035602;28;20534;-82
2021/04/07 02:14:09;;;;;;;5.63;3.30;;;3.20;99.90;;;;;;5036003;28;20204;-82
2021/04/07 02:16:37;;;;;;;5.20;2.80;;;3.20;99.90;;;;;;5036372;28;20214;-82
2021/04/07 02:19:08;;;;;;;2.60;2.33;;;3.20;99.90;;;;;;5041569;28;20208;-82
2021/04/07 02:21:35;;;;;;;4.88;3.13;;;3.20;99.90;;;;;;5057320;28;20224;-82
2021/04/07 02:24:04;;;;;;;5.53;2.80;;;3.20;99.90;;;;;;5044031;28;20165;-82
2021/04/07 02:26:33;;;;;;;4.30;2.90;;;3.20;99.90;;;;;;5028918;28;20212;-81
2021/04/07 02:28:59;;;;;;;3.78;3.08;;;3.20;99.90;;;;;;5043863;28;20181;-82
2021/04/07 02:31:25;;;;;;;4.83;3.10;;;3.20;99.90;;;;;;5044039;28;20208;-83
2021/04/07 02:33:50;;;;;;;4.10;3.17;;;3.20;99.90;;;;;;5060895;28;20205;-82
2021/04/07 02:36:16;;;;;;;3.47;2.93;;;3.20;99.90;;;;;;5043382;28;20598;-82
2021/04/07 02:38:42;;;;;;;2.70;2.17;;;3.30;99.90;;;;;;5026860;28;20691;-83
2021/04/07 02:41:08;;;;;;;4.73;3.27;;;3.30;99.90;;;;;;5042410;28;20193;-82
2021/04/07 02:43:33;;;;;;;7.60;3.78;;;3.30;99.90;;;;;;5044261;28;20177;-82
2021/04/07 02:45:59;;;;;;;4.37;2.43;;;3.40;99.90;;;;;;5060689;28;20284;-82
2021/04/07 02:48:26;;;;;;;4.73;3.17;;;3.40;99.90;;;;;;5041090;28;20200;-82
2021/04/07 02:50:52;;;;;;;5.45;2.85;;;3.40;99.90;;;;;;5060244;28;20189;-82
2021/04/07 02:53:17;;;;;;;6.35;2.70;;;3.50;99.90;;;;;;5045273;28;20177;-82
2021/04/07 02:55:43;;;;;;;4.53;2.93;;;3.50;99.90;;;;;;5044719;28;20173;-82
2021/04/07 02:58:09;;;;;;;8.50;3.70;;;3.50;99.90;;;;;;5058934;28;20560;-82
2021/04/07 03:00:35;;;;;;;5.97;3.87;;;3.60;99.90;;;;;;5044355;28;20168;-82
2021/04/07 03:03:00;;;;;;;7.43;3.33;;;3.60;99.90;;;;;;5059442;28;20165;-81
2021/04/07 03:05:26;;;;;;;5.40;3.80;;;3.60;99.90;;;;;;5040223;28;20251;-80
2021/04/07 03:07:52;;;;;;;5.17;3.17;;;3.60;99.90;;;;;;5061597;28;20575;-81
2021/04/07 03:10:18;;;;;;;6.27;4.00;;;3.60;99.90;;;;;;5060667;28;20177;-80
2021/04/07 03:12:43;;;;;;;2.90;2.70;;;3.60;99.90;;;;;;5061717;28;20199;-80
2021/04/07 03:15:09;;;;;;;5.27;2.90;;;3.70;99.90;;;;;;5062237;28;20169;-81
2021/04/07 03:17:39;;;;;;;5.90;3.53;;;3.70;99.90;;;;;;5046474;28;20341;-81
2021/04/07 03:20:06;;;;;;;4.38;3.97;;;3.70;99.90;;;;;;5051163;28;20214;-81
2021/04/07 03:22:33;;;;;;;6.55;4.00;;;3.70;99.90;;;;;;5068604;28;20211;-82
2021/04/07 03:24:58;;;;;;;7.00;4.05;;;3.70;99.90;;;;;;5066518;28;20161;-82
2021/04/07 03:27:24;;;;;;;6.30;3.20;;;3.60;99.90;;;;;;5049903;28;20200;-82
2021/04/07 03:29:52;;;;;;;3.70;3.35;;;3.60;99.90;;;;;;5031875;28;20687;-82
2021/04/07 03:32:18;;;;;;;6.22;4.22;;;3.70;99.90;;;;;;5044960;28;20406;-82
2021/04/07 03:34:43;;;;;;;4.18;3.75;;;3.70;99.90;;;;;;5045573;28;20279;-82
2021/04/07 03:37:09;;;;;;;4.93;3.93;;;3.70;99.90;;;;;;5046830;28;20200;-81
2021/04/07 03:39:35;;;;;;;7.27;4.60;;;3.70;99.90;;;;;;5036453;28;20184;-81
2021/04/07 03:42:01;;;;;;;11.17;5.10;;;3.80;99.90;;;;;;5078185;28;20185;-81
2021/04/07 03:44:26;;;;;;;4.20;3.43;;;3.80;99.90;;;;;;5042179;28;20611;-82
2021/04/07 03:46:53;;;;;;;5.20;4.20;;;3.80;99.90;;;;;;5074697;28;20610;-81
2021/04/07 03:49:25;;;;;;;4.63;4.03;;;3.80;99.90;;;;;;5060067;28;20203;-81
2021/04/07 03:51:51;;;;;;;5.35;4.25;;;3.80;99.90;;;;;;5034522;28;20189;-81
2021/04/07 03:54:17;;;;;;;5.20;4.70;;;3.80;99.90;;;;;;5055325;28;20238;-82
2021/04/07 03:56:43;;;;;;;4.63;4.22;;;3.80;99.90;;;;;;5040245;28;20560;-81
2021/04/07 03:59:08;;;;;;;6.60;5.13;;;3.90;99.90;;;;;;5060892;28;20191;-81
2021/04/07 04:01:34;;;;;;;5.43;4.90;;;3.80;99.90;;;;;;5059831;28;20184;-81
2021/04/07 04:04:00;;;;;;;6.07;5.47;;;3.90;99.90;;;;;;5054562;28;20252;-81
2021/04/07 04:06:26;;;;;;;4.70;4.30;;;3.90;99.90;;;;;;5039785;28;20187;-81
2021/04/07 04:08:52;;;;;;;6.87;4.60;;;3.90;99.90;;;;;;5057711;28;20256;-81
2021/04/07 04:11:18;;;;;;;6.25;4.82;;;3.90;99.90;;;;;;5023343;28;20205;-82
2021/04/07 04:13:44;;;;;;;6.00;5.47;;;3.90;99.90;;;;;;5039546;28;20199;-81
2021/04/07 04:16:09;;;;;;;5.97;5.47;;;3.90;99.90;;;;;;5027264;28;20984;-80
2021/04/07 04:18:35;;;;;;;5.57;4.90;;;3.90;99.90;;;;;;5059086;28;20282;-80
2021/04/07 04:21:01;;;;;;;5.60;5.20;;;3.90;99.90;;;;;;5055233;28;20246;-81
2021/04/07 04:23:30;;;;;;;5.70;4.40;;;3.90;99.90;;;;;;5086336;22;20226;-80
2021/04/07 04:26:20;;;;;;;8.25;4.60;;;3.90;99.90;;;;;;5057848;28;20171;-79
2021/04/07 04:29:03;;;;;;;7.22;4.40;;;3.90;99.90;;;;;;5058101;28;20264;-81
2021/04/07 04:31:42;;;;;;;5.85;4.70;;;3.90;99.90;;;;;;5059653;28;20646;-81
2021/04/07 04:34:31;;;;;;;5.90;3.45;;;3.90;99.90;;;;;;5039656;28;20179;-79
2021/04/07 04:37:24;;;;;;;4.78;4.28;;;3.90;99.90;;;;;;5057489;28;20562;-79
2021/04/07 04:40:06;;;;;;;3.72;2.78;;;4.00;99.90;;;;;;5054802;28;20172;-80
2021/04/07 04:43:01;;;;;;;5.18;3.28;;;4.00;99.90;;;;;;5049924;28;20192;-79
2021/04/07 04:45:26;;;;;;;3.50;2.87;;;4.00;99.90;;;;;;5072996;28;20164;-80
2021/04/07 04:47:52;;;;;;;4.03;3.35;;;4.00;99.90;;;;;;5070571;28;20945;-79
2021/04/07 04:50:18;;;;;;;8.00;3.63;;;4.00;99.90;;;;;;5072969;28;20173;-80
2021/04/07 04:52:44;;;;;;;4.53;3.80;;;4.00;99.90;;;;;;5071689;28;20207;-80
2021/04/07 04:55:10;;;;;;;7.33;4.47;;;4.00;99.90;;;;;;5073486;28;20179;-79
2021/04/07 04:57:36;;;;;;;6.93;4.85;;;4.00;99.90;;;;;;5072925;28;20207;-79
2021/04/07 05:00:07;;;;;;;5.93;4.15;;;4.00;99.90;;;;;;5038109;28;20644;-80
2021/04/07 05:02:33;;;;;;;5.13;4.63;;;4.00;99.90;;;;;;5072640;28;20184;-80
2021/04/07 05:04:59;;;;;;;4.78;4.22;;;4.00;99.90;;;;;;5072681;28;20172;-79
2021/04/07 05:07:25;;;;;;;7.50;5.67;;;4.00;99.90;;;;;;5070901;28;20217;-79
2021/04/07 05:09:51;;;;;;;5.30;4.80;;;4.00;99.90;;;;;;5072492;28;21174;-79
2021/04/07 05:12:16;;;;;;;9.47;5.50;;;4.00;99.90;;;;;;5072342;28;20180;-79
2021/04/07 05:14:42;;;;;;;8.97;7.47;;;4.00;99.90;;;;;;5072445;28;20165;-79
2021/04/07 05:17:08;;;;;;;7.53;5.90;;;4.10;99.90;;;;;;5071938;28;20892;-79
2021/04/07 05:19:33;;;;;;;5.43;4.93;;;4.10;99.90;;;;;;5071384;28;20645;-79
2021/04/07 05:22:01;;;;;;;5.15;4.75;;;4.10;99.90;;;;;;5071025;28;20180;-79
2021/04/07 05:24:30;;;;;;;5.10;4.45;;;4.10;99.90;;;;;;5071792;28;20172;-79
2021/04/07 05:26:56;;;;;;;5.07;4.20;;;4.10;99.90;;;;;;5073935;28;20175;-79
2021/04/07 05:29:22;;;;;;;3.53;3.23;;;4.10;99.90;;;;;;5073525;28;20180;-80
2021/04/07 05:31:47;;;;;;;4.47;3.33;;;4.10;99.90;;;;;;5057222;28;20258;-79
2021/04/07 05:34:13;;;;;;;5.80;3.13;;;4.10;99.90;;;;;;5076188;28;20164;-79
2021/04/07 05:36:39;;;;;;;5.30;3.53;;;4.20;99.90;;;;;;5073149;28;20249;-79
2021/04/07 05:39:05;;;;;;;4.33;3.17;;;4.20;99.90;;;;;;5074364;28;20649;-81
2021/04/07 05:41:31;;;;;;;4.23;3.30;;;4.20;99.90;;;;;;5073338;28;20656;-81
2021/04/07 05:43:58;;;;;;;4.30;3.90;;;4.20;99.90;;;;;;5056803;28;20970;-80
2021/04/07 05:46:24;;;;;;;4.38;3.25;;;4.20;99.90;;;;;;5073593;28;20165;-79
2021/04/07 05:48:49;;;;;;;3.78;3.42;;;4.20;99.90;;;;;;5056831;28;20180;-79
2021/04/07 05:51:15;;;;;;;8.50;3.20;;;4.20;99.90;;;;;;5057063;28;20320;-79
2021/04/07 05:53:41;;;;;;;5.10;3.30;;;4.20;99.90;;;;;;5054199;28;20681;-78
2021/04/07 05:56:08;;;;;;;4.53;2.70;;;4.20;99.90;;;;;;5037426;28;20205;-77
2021/04/07 05:58:34;;;;;;;4.10;3.70;;;4.20;99.90;;;;;;5036770;28;20629;-77
2021/04/07 06:01:00;;;;;;;3.37;2.40;;;4.30;99.90;;;;;;5052937;28;20252;-77
2021/04/07 06:03:26;;;;;;;5.65;2.95;;;4.30;99.90;;;;;;5070645;28;20180;-76
2021/04/07 06:05:52;;;;;;;3.07;2.77;;;4.30;99.90;;;;;;5071378;28;20238;-78
2021/04/07 06:08:19;;;;;;;4.30;2.70;;;4.30;99.90;;;;;;5069939;28;20175;-78
2021/04/07 06:10:47;;;;;;;3.50;3.20;;;4.30;99.90;;;;;;5057880;28;20184;-77
2021/04/07 06:13:15;;;;;;;3.60;3.30;;;4.30;99.90;;;;;;5053266;28;20220;-77
2021/04/07 06:15:41;;;;;;;5.55;4.22;;;4.40;99.90;;;;;;5052508;28;20519;-77
2021/04/07 06:18:09;;;;;;;4.25;2.80;;;4.40;99.90;;;;;;5033299;28;20532;-77
2021/04/07 06:20:37;;;;;;;12.63;3.95;;;4.40;99.90;;;;;;5052018;28;20196;-79
2021/04/07 06:23:04;;;;;;;5.80;4.47;;;4.40;99.90;;;;;;5033284;28;20192;-79
2021/04/07 06:25:31;;;;;;;5.93;4.53;;;4.50;99.90;;;;;;5033258;28;20177;-80
2021/04/07 06:27:59;;;;;;;4.40;4.00;;;4.50;99.90;;;;;;5032644;28;20169;-80
2021/04/07 06:30:42;;;;;;;5.05;4.53;;;4.50;99.90;;;;;;5051316;28;20252;-79
2021/04/07 06:33:25;;;;;;;5.97;3.50;;;4.40;99.90;;;;;;5051173;28;20280;-80
2021/04/07 06:36:03;;;;;;;5.75;5.25;;;4.40;99.90;;;;;;5042569;28;20202;-79
2021/04/07 06:38:31;;;;;;;4.35;3.85;;;4.40;99.90;;;;;;5053641;28;20199;-78
2021/04/07 06:40:58;;;;;;;6.25;4.32;;;4.40;99.90;;;;;;5053503;28;20247;-77
2021/04/07 06:43:27;;;;;;;8.77;5.00;;;4.40;99.90;;;;;;5036418;28;20209;-77
2021/04/07 06:45:53;;;;;;;7.63;4.15;;;4.40;99.90;;;;;;5069894;28;20666;-77
2021/04/07 06:48:20;;;;;;;8.77;4.63;;;4.30;99.90;;;;;;5039670;28;20180;-78
2021/04/07 06:50:48;;;;;;;7.20;4.60;;;4.30;99.90;;;;;;5075276;28;20662;-80
2021/04/07 06:53:17;;;;;;;4.25;3.85;;;4.30;99.90;;;;;;5071665;28;20664;-78
2021/04/07 06:55:43;;;;;;;5.68;4.20;;;4.30;99.90;;;;;;5071778;28;20196;-78
2021/04/07 06:58:10;;;;;;;3.67;3.33;;;4.30;99.90;;;;;;5052549;28;20719;-78
2021/04/07 07:00:38;;;;;;;3.90;3.13;;;4.30;99.90;;;;;;5052917;28;20562;-78
2021/04/07 07:03:06;;;;;;;5.80;3.83;;;4.30;99.90;;;;;;5070738;28;20195;-77
2021/04/07 07:05:33;;;;;;;4.32;3.45;;;4.30;99.90;;;;;;5036267;28;20165;-79
2021/04/07 07:08:01;;;;;;;4.50;3.55;;;4.40;99.90;;;;;;5070453;28;20574;-77
2021/04/07 07:10:40;;;;;;;3.65;3.15;;;4.40;99.90;;;;;;5052947;28;20195;-78
2021/04/07 07:13:08;;;;;;;4.13;2.90;;;4.40;99.90;;;;;;5074304;28;20321;-79
2021/04/07 07:15:34;;;;;;;4.05;2.25;;;4.40;99.90;;;;;;5058059;28;20174;-78
2021/04/07 07:18:00;;;;;;;2.92;2.63;;;4.40;99.90;;;;;;5056119;28;20249;-78
2021/04/07 07:20:32;;;;;;;6.70;2.70;;;4.40;99.90;;;;;;5074430;28;20165;-78
2021/04/07 07:22:59;;;;;;;4.45;2.83;;;4.40;99.90;;;;;;5056087;28;20944;-78
2021/04/07 07:25:25;;;;;;;3.47;3.00;;;4.40;99.90;;;;;;5062342;28;20208;-79
2021/04/07 07:28:00;;;;;;;2.35;2.15;;;4.40;99.90;;;;;;5039502;28;20307;-79
2021/04/07 07:30:45;;;;;;;4.15;2.22;;;4.50;99.90;;;;;;5074196;28;20168;-78
2021/04/07 07:33:22;;;;;;;3.00;2.20;;;4.50;99.90;;;;;;5039663;28;20652;-79
2021/04/07 07:35:54;;;;;;;4.85;2.50;;;4.50;99.90;;;;;;5039937;28;20195;-78
2021/04/07 07:38:28;;;;;;;3.83;1.70;;;4.50;99.90;;;;;;5051898;28;20204;-79
2021/04/07 07:41:07;;;;;;;4.20;2.83;;;4.60;99.90;;;;;;5066262;28;20606;-77
2021/04/07 07:43:42;;;;;;;7.65;2.10;;;4.60;99.90;;;;;;5085818;28;20196;-79
2021/04/07 07:46:12;;;;;;;6.23;1.90;;;4.70;99.90;;;;;;5069433;28;20172;-78
2021/04/07 07:48:40;;;;;;;4.72;2.33;;;4.70;99.90;;;;;;5067209;28;20609;-78
2021/04/07 07:51:24;;;;;;;2.58;2.05;;;4.70;99.90;;;;;;5053117;28;20184;-78
2021/04/07 07:53:52;;;;;;;4.22;2.13;;;4.70;99.90;;;;;;5069282;28;20232;-79
2021/04/07 07:56:23;;;;;;;9.38;3.45;;;4.70;99.90;;;;;;5071095;28;20205;-78
2021/04/07 07:58:52;;;;;;;2.75;1.48;;;4.70;99.90;;;;;;5054977;28;20195;-78
2021/04/07 08:01:20;;;;;;;4.80;1.88;;;4.60;99.90;;;;;;5024037;28;20580;-79
2021/04/07 08:03:48;;;;;;;4.78;1.80;;;4.60;99.90;;;;;;5053602;28;20203;-78
2021/04/07 08:06:15;;;;;;;2.85;2.10;;;4.60;99.90;;;;;;5067749;28;20204;-80
2021/04/07 08:08:44;;;;;;;7.88;2.55;;;4.50;99.90;;;;;;5053386;28;20173;-80
2021/04/07 08:11:13;;;;;;;2.25;1.73;;;4.50;99.90;;;;;;5034569;28;20185;-79
2021/04/07 08:13:43;;;;;;;6.50;2.17;;;4.50;99.90;;;;;;5035797;28;20242;-79
2021/04/07 08:16:15;;;;;;;4.43;1.67;;;4.50;99.90;;;;;;5063887;28;20180;-80
2021/04/07 08:18:42;;;;;;;3.95;2.08;;;4.60;99.90;;;;;;5055528;28;20203;-80
2021/04/07 08:21:08;;;;;;;2.90;1.75;;;4.60;99.90;;;;;;5055324;28;20164;-81
2021/04/07 08:23:36;;;;;;;2.90;1.60;;;4.70;99.90;;;;;;5088465;28;20629;-82
2021/04/07 08:26:03;;;;;;;3.70;1.65;;;4.80;99.90;;;;;;5056650;28;20199;-81
2021/04/07 08:28:29;;;;;;;2.65;1.38;;;4.80;99.90;;;;;;5073846;28;20580;-80
2021/04/07 08:30:55;;;;;;;2.42;1.52;;;4.90;99.90;;;;;;5060461;28;20168;-79
2021/04/07 08:33:23;;;;;;;2.45;1.58;;;5.00;99.90;;;;;;5062859;28;20545;-79
2021/04/07 08:35:54;;;;;;;2.92;1.35;;;5.10;99.90;;;;;;5061963;28;20194;-79
2021/04/07 08:38:31;;;;;;;2.53;1.75;;;5.20;99.90;;;;;;5059042;28;20204;-79
2021/04/07 08:41:27;;;;;;;2.47;1.58;;;5.40;99.90;;;;;;5073493;28;20643;-78
2021/04/07 08:43:54;;;;;;;2.50;1.27;;;5.40;99.90;;;;;;5062006;28;20204;-79
2021/04/07 08:46:24;;;;;;;2.35;1.10;;;5.50;99.90;;;;;;5074778;28;20169;-79
2021/04/07 08:48:54;;;;;;;3.55;1.27;;;5.60;99.90;;;;;;5057069;28;20169;-77
2021/04/07 08:51:25;;;;;;;2.85;2.25;;;5.70;99.90;;;;;;5056189;28;20230;-79
2021/04/07 08:53:56;;;;;;;2.05;1.10;;;5.90;99.90;;;;;;5038638;28;20204;-78
2021/04/07 08:56:30;;;;;;;5.30;1.30;;;6.10;99.90;;;;;;5072536;28;20172;-79
2021/04/07 08:59:03;;;;;;;2.20;1.10;;;6.10;99.90;;;;;;5037649;28;20209;-78
2021/04/07 09:01:36;;;;;;;2.20;1.20;;;6.10;99.90;;;;;;5037876;28;20168;-77
2021/04/07 09:04:12;;;;;;;1.80;1.20;;;6.10;99.90;;;;;;5054292;28;20263;-78
2021/04/07 09:07:00;;;;;;;1.85;1.23;;;6.00;99.90;;;;;;5037515;28;20168;-77
2021/04/07 09:09:27;;;;;;;1.67;1.10;;;6.00;99.90;;;;;;5054480;28;20168;-78
2021/04/07 09:17:08;;;;;;;3.92;3.17;;;5.90;99.90;;;;;;5093737;28;20687;-78
2021/04/07 09:19:37;;;;;;;4.37;2.67;;;5.90;99.90;;;;;;5078627;28;20204;-78
2021/04/07 09:22:08;;;;;;;3.13;2.10;;;5.80;99.90;;;;;;5072015;28;20176;-76
2021/04/07 09:24:42;;;;;;;2.22;1.40;;;5.80;99.90;;;;;;5092321;28;20194;-76
2021/04/07 09:27:28;;;;;;;2.60;1.30;;;5.80;99.90;;;;;;5074139;28;20168;-78
2021/04/07 09:30:06;;;;;;;4.82;1.40;;;5.90;99.90;;;;;;5092044;28;20206;-77
2021/04/07 09:32:38;;;;;;;1.95;1.60;;;5.90;99.90;;;;;;5057231;28;20554;-77
2021/04/07 09:35:11;;;;;;;1.95;1.30;;;5.90;99.90;;;;;;5074058;28;20648;-76
2021/04/07 09:37:40;;;;;;;2.95;1.85;;;5.90;99.90;;;;;;5057161;28;20278;-77
2021/04/07 09:40:16;;;;;;;2.95;1.95;;;5.90;99.90;;;;;;5057908;28;20213;-77
2021/04/07 09:42:42;;;;;;;4.40;2.80;;;5.90;99.90;;;;;;5073711;28;20183;-78
2021/04/07 09:45:09;;;;;;;4.53;2.45;;;5.90;99.90;;;;;;5074232;28;20163;-77
2021/04/07 09:47:34;;;;;;;3.28;2.20;;;5.90;99.90;;;;;;5056911;28;20191;-78
2021/04/07 09:50:09;;;;;;;3.13;2.45;;;5.90;99.90;;;;;;5086100;28;20167;-77
2021/04/07 09:52:39;;;;;;;5.28;2.80;;;5.90;99.90;;;;;;5111558;28;20199;-76
2021/04/07 09:55:05;;;;;;;3.10;1.98;;;5.90;99.90;;;;;;5066835;28;20187;-77
2021/04/07 09:57:40;;;;;;;3.60;3.30;;;5.90;99.90;;;;;;5103536;28;20242;-77
2021/04/07 10:00:11;;;;;;;3.45;3.08;;;5.80;99.90;;;;;;5072429;28;20593;-77
2021/04/07 10:02:40;;;;;;;3.10;2.20;;;5.80;99.90;;;;;;5092451;28;20187;-78
2021/04/07 10:05:06;;;;;;;2.50;2.30;;;5.70;99.90;;;;;;5106886;28;20417;-78
2021/04/07 10:07:35;;;;;;;3.60;2.35;;;5.70;99.90;;;;;;5106821;28;20204;-78
2021/04/07 10:10:07;;;;;;;3.72;2.35;;;5.70;99.90;;;;;;5104506;28;20183;-78
2021/04/07 10:12:36;;;;;;;3.40;3.10;;;5.60;99.90;;;;;;5105336;28;20198;-77
2021/04/07 10:15:04;;;;;;;3.97;2.20;;;5.60;99.90;;;;;;5111997;28;20179;-76
2021/04/07 10:17:39;;;;;;;3.60;1.70;;;5.50;99.90;;;;;;5109069;28;20197;-78
2021/04/07 10:20:13;;;;;;;2.67;2.40;;;5.50;99.90;;;;;;5109396;28;20572;-77
2021/04/07 10:22:41;;;;;;;3.05;2.45;;;5.50;99.90;;;;;;5111742;22;20218;-79
2021/04/07 10:25:17;;;;;;;2.47;2.25;;;5.50;99.90;;;;;;5083230;28;20191;-78
2021/04/07 10:27:44;;;;;;;3.28;2.30;;;5.50;99.90;;;;;;5089727;28;20581;-79
2021/04/07 10:30:15;;;;;;;4.30;2.47;;;5.50;99.90;;;;;;5088905;28;20180;-78
2021/04/07 10:32:50;;;;;;;3.88;2.50;;;5.50;99.90;;;;;;5087824;28;20597;-78
2021/04/07 10:35:31;;;;;;;4.40;3.22;;;5.50;99.90;;;;;;5052498;28;21117;-78
2021/04/07 10:38:02;;;;;;;3.78;2.90;;;5.60;99.90;;;;;;5069843;28;20212;-79
2021/04/07 10:40:33;;;;;;;7.97;4.38;;;5.60;99.90;;;;;;5071747;28;20304;-79
2021/04/07 10:43:10;;;;;;;6.03;4.43;;;5.70;99.90;;;;;;5068958;28;20227;-78
2021/04/07 10:45:35;;;;;;;3.90;2.92;;;5.70;99.90;;;;;;5059445;28;20179;-78
2021/04/07 10:48:05;;;;;;;4.23;2.90;;;5.80;99.90;;;;;;5070690;28;20177;-79
2021/04/07 10:50:38;;;;;;;4.05;3.45;;;5.90;99.90;;;;;;5064655;28;20179;-77
2021/04/07 10:53:06;;;;;;;6.50;3.13;;;5.90;99.90;;;;;;5061157;28;20188;-79
2021/04/07 10:55:33;;;;;;;3.38;2.75;;;6.00;99.90;;;;;;5073758;28;20619;-79
2021/04/07 10:58:01;;;;;;;4.78;3.90;;;6.10;99.90;;;;;;5063563;28;20200;-78
2021/04/07 11:00:37;;;;;;;6.97;4.40;;;6.10;99.90;;;;;;5069760;28;20171;-79
2021/04/07 11:03:04;;;;;;;4.80;3.95;;;6.10;99.90;;;;;;5066362;28;20192;-79
2021/04/07 11:05:40;;;;;;;3.80;2.85;;;6.20;99.90;;;;;;5067583;28;20222;-79
2021/04/07 11:08:08;;;;;;;3.80;2.90;;;6.20;99.90;;;;;;5066488;28;20234;-79
2021/04/07 11:10:48;;;;;;;3.95;2.90;;;6.20;99.90;;;;;;5073389;28;20181;-79
2021/04/07 11:13:15;;;;;;;8.65;3.72;;;6.20;99.90;;;;;;5086507;28;20192;-79
2021/04/07 11:15:41;;;;;;;9.95;4.43;;;6.20;99.90;;;;;;5075834;28;20558;-79
2021/04/07 11:18:07;;;;;;;5.75;3.70;;;6.20;99.90;;;;;;5079121;28;20590;-79
2021/04/07 11:20:35;;;;;;;9.63;4.83;;;6.20;99.90;;;;;;5066401;28;20215;-79
2021/04/07 11:23:01;;;;;;;10.00;4.45;;;6.20;99.90;;;;;;5070058;28;20639;-79
2021/04/07 11:25:27;;;;;;;7.28;5.03;;;6.20;99.90;;;;;;5062817;28;20207;-80
2021/04/07 11:27:57;;;;;;;6.75;3.83;;;6.20;99.90;;;;;;5075782;28;20192;-79
2021/04/07 11:30:24;;;;;;;5.97;3.88;;;6.30;99.90;;;;;;5058103;28;20180;-80
2021/04/07 11:33:06;;;;;;;8.35;4.90;;;6.30;99.90;;;;;;5067210;28;20228;-80
2021/04/07 11:35:41;;;;;;;7.85;4.10;;;6.40;99.90;;;;;;5065905;28;20187;-79
2021/04/07 11:38:09;;;;;;;6.43;3.80;;;6.40;99.90;;;;;;5060198;28;20221;-80
2021/04/07 11:43:27;;;;;;;7.28;3.88;;;6.60;99.90;;;;;;5063108;28;20192;-80
2021/04/07 11:45:53;;;;;;;5.65;3.00;;;6.70;99.90;;;;;;5044846;28;20256;-80
2021/04/07 11:48:20;;;;;;;8.47;5.10;;;6.90;99.90;;;;;;5045321;28;20271;-80
2021/04/07 11:50:45;;;;;;;5.80;4.03;;;7.10;99.90;;;;;;5064204;28;20631;-80
2021/04/07 11:53:11;;;;;;;8.43;4.07;;;7.40;99.90;;;;;;5063542;28;20566;-79
2021/04/07 11:55:38;;;;;;;9.33;3.60;;;7.50;99.90;;;;;;5062154;28;20211;-79
2021/04/07 11:58:04;;;;;;;6.90;4.05;;;7.70;99.90;;;;;;5044253;28;20239;-79
2021/04/07 12:00:30;;;;;;;12.63;5.43;;;7.90;99.90;;;;;;5069073;28;20200;-80
2021/04/07 12:02:57;;;;;;;9.07;5.10;;;8.00;99.90;;;;;;5058072;28;20641;-80
2021/04/07 12:05:25;;;;;;;7.60;4.35;;;8.10;99.90;;;;;;5074873;28;20242;-79
2021/04/07 12:07:51;;;;;;;8.77;3.92;;;8.10;99.90;;;;;;5070835;28;20180;-79
2021/04/07 12:10:17;;;;;;;7.40;3.53;;;8.20;99.90;;;;;;5066120;28;20772;-79
2021/04/07 12:12:44;;;;;;;9.33;3.73;;;8.30;99.90;;;;;;5059306;28;20664;-80
2021/04/07 12:15:10;;;;;;;8.57;4.55;;;8.40;99.90;;;;;;5065554;28;21117;-80
2021/04/07 12:17:36;;;;;;;7.97;3.60;;;8.50;99.90;;;;;;5060517;28;20295;-79
2021/04/07 12:20:03;;;;;;;5.80;3.70;;;8.50;99.90;;;;;;5027141;28;20590;-79
2021/04/07 12:22:29;;;;;;;8.75;4.05;;;8.60;99.90;;;;;;5044354;28;20197;-79
2021/04/07 12:24:55;;;;;;;6.90;4.00;;;8.70;99.90;;;;;;5063630;28;20181;-79
2021/04/07 12:27:21;;;;;;;6.13;3.83;;;8.80;99.90;;;;;;5047977;28;20176;-79
2021/04/07 12:29:46;;;;;;;7.53;3.50;;;8.80;99.90;;;;;;5039250;28;20192;-79
2021/04/07 12:32:12;;;;;;;8.57;3.33;;;8.70;99.90;;;;;;5066160;28;20185;-79
2021/04/07 12:34:41;;;;;;;9.30;4.93;;;8.70;99.90;;;;;;5071037;28;20532;-79
2021/04/07 12:37:10;;;;;;;10.88;3.85;;;8.70;99.90;;;;;;5060238;28;20591;-79
2021/04/07 12:39:41;;;;;;;9.30;4.35;;;8.70;99.90;;;;;;5055719;28;20192;-80
2021/04/07 12:42:14;;;;;;;8.63;4.35;;;8.80;99.90;;;;;;5075721;28;20176;-78
2021/04/07 12:44:40;;;;;;;14.18;5.65;;;8.80;99.90;;;;;;5065497;28;20200;-79
2021/04/07 12:47:05;;;;;;;8.53;5.10;;;8.80;99.90;;;;;;5052695;28;20200;-79
2021/04/07 12:49:31;;;;;;;11.47;5.77;;;8.80;99.90;;;;;;5060781;28;20579;-79
2021/04/07 12:51:57;;;;;;;13.15;5.18;;;8.80;99.90;;;;;;5070938;28;20237;-79
2021/04/07 12:54:23;;;;;;;13.77;6.47;;;8.70;99.90;;;;;;5062366;28;20196;-79
2021/04/07 12:56:48;;;;;;;13.27;4.60;;;8.70;99.90;;;;;;5070088;28;20692;-77
2021/04/07 12:59:14;;;;;;;7.90;4.30;;;8.60;99.90;;;;;;5066045;28;20288;-77
2021/04/07 13:01:40;;;;;;;8.77;4.70;;;8.50;99.90;;;;;;5060097;28;20176;-77
2021/04/07 13:04:06;;;;;;;7.80;4.43;;;8.50;99.90;;;;;;5074488;28;20216;-77
2021/04/07 13:06:31;;;;;;;6.13;3.60;;;8.60;99.90;;;;;;5073839;28;20157;-80
2021/04/07 13:08:59;;;;;;;7.22;3.20;;;8.70;99.90;;;;;;5086914;28;20188;-79
2021/04/07 13:11:25;;;;;;;8.10;2.67;;;8.80;99.90;;;;;;5089844;28;20255;-80
2021/04/07 13:13:51;;;;;;;9.03;2.77;;;8.90;99.90;;;;;;5084878;28;20184;-80